sensor_id;sensor_type;location;lat;lon;timestamp;P1;durP1;ratioP1;P2;durP2;ratioP2
52786;SDS011;38661;53.152;5.846;2023-12-14T00:00:18;11.10;;;6.35;;
52786;SDS011;38661;53.152;5.846;2023-12-14T00:06:27;9.45;;;5.93;;
52786;SDS011;38661;53.152;5.846;2023-12-14T00:08:52;11.57;;;6.47;;
52786;SDS011;38661;53.152;5.846;2023-12-14T00:11:18;10.02;;;5.82;;
52786;SDS011;38661;53.152;5.846;2023-12-14T00:13:44;10.90;;;5.57;;
52786;SDS011;38661;53.152;5.846;2023-12-14T00:16:09;12.15;;;5.97;;
52786;SDS011;38661;53.152;5.846;2023-12-14T00:18:35;11.40;;;6.50;;
52786;SDS011;38661;53.152;5.846;2023-12-14T00:21:02;16.58;;;8.02;;
52786;SDS011;38661;53.152;5.846;2023-12-14T00:23:28;13.88;;;7.22;;
52786;SDS011;38661;53.152;5.846;2023-12-14T00:25:54;10.07;;;7.05;;
52786;SDS011;38661;53.152;5.846;2023-12-14T00:28:19;13.73;;;7.05;;
52786;SDS011;38661;53.152;5.846;2023-12-14T00:30:45;11.32;;;6.75;;
52786;SDS011;38661;53.152;5.846;2023-12-14T00:33:11;9.02;;;6.18;;
52786;SDS011;38661;53.152;5.846;2023-12-14T00:35:36;10.35;;;6.30;;
52786;SDS011;38661;53.152;5.846;2023-12-14T00:38:02;12.73;;;6.45;;
52786;SDS011;38661;53.152;5.846;2023-12-14T00:40:28;10.23;;;5.90;;
52786;SDS011;38661;53.152;5.846;2023-12-14T01:01:17;10.23;;;5.63;;
52786;SDS011;38661;53.152;5.846;2023-12-14T01:03:43;11.52;;;6.72;;
52786;SDS011;38661;53.152;5.846;2023-12-14T01:06:09;11.25;;;6.20;;
52786;SDS011;38661;53.152;5.846;2023-12-14T01:08:34;12.73;;;6.25;;
52786;SDS011;38661;53.152;5.846;2023-12-14T01:11:00;8.80;;;6.63;;
52786;SDS011;38661;53.152;5.846;2023-12-14T01:13:25;9.48;;;6.53;;
52786;SDS011;38661;53.152;5.846;2023-12-14T01:15:51;13.63;;;7.47;;
52786;SDS011;38661;53.152;5.846;2023-12-14T01:18:17;11.85;;;6.47;;
52786;SDS011;38661;53.152;5.846;2023-12-14T01:20:42;8.70;;;5.78;;
52786;SDS011;38661;53.152;5.846;2023-12-14T01:23:08;9.15;;;5.43;;
52786;SDS011;38661;53.152;5.846;2023-12-14T01:25:36;10.45;;;7.20;;
52786;SDS011;38661;53.152;5.846;2023-12-14T01:28:02;9.18;;;6.35;;
52786;SDS011;38661;53.152;5.846;2023-12-14T01:30:28;9.15;;;6.28;;
52786;SDS011;38661;53.152;5.846;2023-12-14T01:32:54;7.18;;;6.15;;
52786;SDS011;38661;53.152;5.846;2023-12-14T01:35:19;7.15;;;5.90;;
52786;SDS011;38661;53.152;5.846;2023-12-14T01:37:45;9.38;;;6.75;;
52786;SDS011;38661;53.152;5.846;2023-12-14T01:40:11;9.05;;;6.85;;
52786;SDS011;38661;53.152;5.846;2023-12-14T01:42:37;10.02;;;6.85;;
52786;SDS011;38661;53.152;5.846;2023-12-14T01:45:03;9.20;;;6.93;;
52786;SDS011;38661;53.152;5.846;2023-12-14T01:47:29;9.88;;;6.65;;
52786;SDS011;38661;53.152;5.846;2023-12-14T01:49:55;11.57;;;7.00;;
52786;SDS011;38661;53.152;5.846;2023-12-14T01:52:20;11.63;;;6.97;;
52786;SDS011;38661;53.152;5.846;2023-12-14T01:54:46;11.40;;;7.22;;
52786;SDS011;38661;53.152;5.846;2023-12-14T01:57:12;11.48;;;7.10;;
52786;SDS011;38661;53.152;5.846;2023-12-14T01:59:37;8.80;;;6.75;;
52786;SDS011;38661;53.152;5.846;2023-12-14T02:02:03;10.15;;;7.40;;
52786;SDS011;38661;53.152;5.846;2023-12-14T02:04:30;10.25;;;7.63;;
52786;SDS011;38661;53.152;5.846;2023-12-14T02:06:56;9.48;;;6.40;;
52786;SDS011;38661;53.152;5.846;2023-12-14T02:09:22;10.15;;;6.82;;
52786;SDS011;38661;53.152;5.846;2023-12-14T02:11:47;11.52;;;7.45;;
52786;SDS011;38661;53.152;5.846;2023-12-14T02:14:13;10.45;;;7.55;;
52786;SDS011;38661;53.152;5.846;2023-12-14T02:16:39;10.43;;;7.65;;
52786;SDS011;38661;53.152;5.846;2023-12-14T02:19:05;10.50;;;8.27;;
52786;SDS011;38661;53.152;5.846;2023-12-14T02:21:30;14.25;;;8.77;;
52786;SDS011;38661;53.152;5.846;2023-12-14T02:23:56;12.25;;;8.20;;
52786;SDS011;38661;53.152;5.846;2023-12-14T02:26:22;12.18;;;7.78;;
52786;SDS011;38661;53.152;5.846;2023-12-14T02:28:48;10.25;;;8.00;;
52786;SDS011;38661;53.152;5.846;2023-12-14T02:31:13;11.48;;;8.02;;
52786;SDS011;38661;53.152;5.846;2023-12-14T02:33:39;12.80;;;8.50;;
52786;SDS011;38661;53.152;5.846;2023-12-14T02:36:05;13.30;;;8.57;;
52786;SDS011;38661;53.152;5.846;2023-12-14T02:38:31;12.75;;;8.48;;
52786;SDS011;38661;53.152;5.846;2023-12-14T02:40:57;10.80;;;8.93;;
52786;SDS011;38661;53.152;5.846;2023-12-14T02:43:22;15.77;;;9.68;;
52786;SDS011;38661;53.152;5.846;2023-12-14T02:45:48;16.48;;;8.32;;
52786;SDS011;38661;53.152;5.846;2023-12-14T02:48:14;14.35;;;9.00;;
52786;SDS011;38661;53.152;5.846;2023-12-14T02:50:40;16.42;;;9.45;;
52786;SDS011;38661;53.152;5.846;2023-12-14T02:53:06;11.80;;;8.52;;
52786;SDS011;38661;53.152;5.846;2023-12-14T02:55:31;15.63;;;11.07;;
52786;SDS011;38661;53.152;5.846;2023-12-14T02:57:57;13.65;;;9.75;;
52786;SDS011;38661;53.152;5.846;2023-12-14T03:00:23;17.10;;;9.63;;
52786;SDS011;38661;53.152;5.846;2023-12-14T03:02:48;12.07;;;8.80;;
52786;SDS011;38661;53.152;5.846;2023-12-14T03:05:14;10.98;;;8.73;;
52786;SDS011;38661;53.152;5.846;2023-12-14T03:07:40;16.15;;;9.82;;
52786;SDS011;38661;53.152;5.846;2023-12-14T03:10:06;10.82;;;8.25;;
52786;SDS011;38661;53.152;5.846;2023-12-14T03:12:32;16.13;;;9.73;;
52786;SDS011;38661;53.152;5.846;2023-12-14T03:14:58;12.65;;;9.13;;
52786;SDS011;38661;53.152;5.846;2023-12-14T03:17:23;14.82;;;9.45;;
52786;SDS011;38661;53.152;5.846;2023-12-14T03:19:49;13.98;;;9.07;;
52786;SDS011;38661;53.152;5.846;2023-12-14T03:22:15;11.52;;;8.23;;
52786;SDS011;38661;53.152;5.846;2023-12-14T03:24:41;12.68;;;8.60;;
52786;SDS011;38661;53.152;5.846;2023-12-14T03:27:07;13.80;;;9.25;;
52786;SDS011;38661;53.152;5.846;2023-12-14T03:29:33;12.80;;;8.45;;
52786;SDS011;38661;53.152;5.846;2023-12-14T03:31:58;11.98;;;8.40;;
52786;SDS011;38661;53.152;5.846;2023-12-14T03:34:24;12.82;;;8.88;;
52786;SDS011;38661;53.152;5.846;2023-12-14T03:36:50;14.40;;;8.10;;
52786;SDS011;38661;53.152;5.846;2023-12-14T03:39:16;15.80;;;9.00;;
52786;SDS011;38661;53.152;5.846;2023-12-14T03:41:42;14.52;;;8.70;;
52786;SDS011;38661;53.152;5.846;2023-12-14T03:44:08;15.23;;;8.45;;
52786;SDS011;38661;53.152;5.846;2023-12-14T03:46:34;12.13;;;8.57;;
52786;SDS011;38661;53.152;5.846;2023-12-14T03:49:00;15.90;;;8.60;;
52786;SDS011;38661;53.152;5.846;2023-12-14T03:51:26;14.07;;;8.95;;
52786;SDS011;38661;53.152;5.846;2023-12-14T03:53:51;18.83;;;8.93;;
52786;SDS011;38661;53.152;5.846;2023-12-14T03:56:17;15.65;;;7.53;;
52786;SDS011;38661;53.152;5.846;2023-12-14T03:58:43;15.73;;;8.70;;
52786;SDS011;38661;53.152;5.846;2023-12-14T04:01:15;14.77;;;9.05;;
52786;SDS011;38661;53.152;5.846;2023-12-14T04:03:41;15.60;;;9.07;;
52786;SDS011;38661;53.152;5.846;2023-12-14T04:06:07;15.52;;;9.40;;
52786;SDS011;38661;53.152;5.846;2023-12-14T04:08:33;18.95;;;9.43;;
52786;SDS011;38661;53.152;5.846;2023-12-14T04:10:59;15.23;;;9.02;;
52786;SDS011;38661;53.152;5.846;2023-12-14T04:13:24;19.58;;;9.70;;
52786;SDS011;38661;53.152;5.846;2023-12-14T04:15:50;15.88;;;9.25;;
52786;SDS011;38661;53.152;5.846;2023-12-14T04:18:16;14.77;;;8.98;;
52786;SDS011;38661;53.152;5.846;2023-12-14T04:20:41;15.93;;;8.48;;
52786;SDS011;38661;53.152;5.846;2023-12-14T04:23:07;16.13;;;9.20;;
52786;SDS011;38661;53.152;5.846;2023-12-14T04:25:32;14.05;;;8.52;;
52786;SDS011;38661;53.152;5.846;2023-12-14T04:27:58;19.83;;;8.88;;
52786;SDS011;38661;53.152;5.846;2023-12-14T04:30:24;16.63;;;9.10;;
52786;SDS011;38661;53.152;5.846;2023-12-14T04:32:49;16.95;;;9.35;;
52786;SDS011;38661;53.152;5.846;2023-12-14T04:35:15;17.20;;;9.27;;
52786;SDS011;38661;53.152;5.846;2023-12-14T04:37:41;16.70;;;9.35;;
52786;SDS011;38661;53.152;5.846;2023-12-14T04:40:07;13.02;;;8.43;;
52786;SDS011;38661;53.152;5.846;2023-12-14T04:42:33;20.13;;;9.38;;
52786;SDS011;38661;53.152;5.846;2023-12-14T04:44:59;15.75;;;9.45;;
52786;SDS011;38661;53.152;5.846;2023-12-14T04:47:25;15.40;;;8.85;;
52786;SDS011;38661;53.152;5.846;2023-12-14T04:49:51;17.90;;;9.25;;
52786;SDS011;38661;53.152;5.846;2023-12-14T04:52:16;17.35;;;8.98;;
52786;SDS011;38661;53.152;5.846;2023-12-14T04:54:42;14.10;;;8.95;;
52786;SDS011;38661;53.152;5.846;2023-12-14T04:57:07;14.63;;;8.45;;
52786;SDS011;38661;53.152;5.846;2023-12-14T04:59:33;20.90;;;9.90;;
52786;SDS011;38661;53.152;5.846;2023-12-14T05:01:59;18.52;;;9.73;;
52786;SDS011;38661;53.152;5.846;2023-12-14T05:04:24;14.68;;;9.02;;
52786;SDS011;38661;53.152;5.846;2023-12-14T05:06:50;18.63;;;8.88;;
52786;SDS011;38661;53.152;5.846;2023-12-14T05:09:16;15.18;;;8.63;;
52786;SDS011;38661;53.152;5.846;2023-12-14T05:11:42;19.55;;;9.73;;
52786;SDS011;38661;53.152;5.846;2023-12-14T05:14:08;15.93;;;10.07;;
52786;SDS011;38661;53.152;5.846;2023-12-14T05:16:33;13.98;;;9.23;;
52786;SDS011;38661;53.152;5.846;2023-12-14T05:18:59;16.42;;;9.95;;
52786;SDS011;38661;53.152;5.846;2023-12-14T05:21:25;16.58;;;10.10;;
52786;SDS011;38661;53.152;5.846;2023-12-14T05:23:50;17.15;;;8.77;;
52786;SDS011;38661;53.152;5.846;2023-12-14T05:26:16;16.60;;;9.70;;
52786;SDS011;38661;53.152;5.846;2023-12-14T05:28:42;17.27;;;9.48;;
52786;SDS011;38661;53.152;5.846;2023-12-14T05:31:07;19.40;;;9.90;;
52786;SDS011;38661;53.152;5.846;2023-12-14T05:33:37;17.10;;;9.20;;
52786;SDS011;38661;53.152;5.846;2023-12-14T05:36:03;15.57;;;8.27;;
52786;SDS011;38661;53.152;5.846;2023-12-14T05:38:34;14.15;;;9.43;;
52786;SDS011;38661;53.152;5.846;2023-12-14T05:40:59;15.70;;;8.27;;
52786;SDS011;38661;53.152;5.846;2023-12-14T05:43:25;13.65;;;8.73;;
52786;SDS011;38661;53.152;5.846;2023-12-14T05:45:51;14.98;;;8.35;;
52786;SDS011;38661;53.152;5.846;2023-12-14T05:48:16;15.85;;;8.48;;
52786;SDS011;38661;53.152;5.846;2023-12-14T05:50:42;18.70;;;9.63;;
52786;SDS011;38661;53.152;5.846;2023-12-14T05:53:08;19.27;;;10.00;;
52786;SDS011;38661;53.152;5.846;2023-12-14T05:55:33;17.85;;;9.13;;
52786;SDS011;38661;53.152;5.846;2023-12-14T05:58:00;18.52;;;9.30;;
52786;SDS011;38661;53.152;5.846;2023-12-14T06:00:25;20.10;;;10.38;;
52786;SDS011;38661;53.152;5.846;2023-12-14T06:02:51;16.67;;;9.30;;
52786;SDS011;38661;53.152;5.846;2023-12-14T06:05:17;18.85;;;10.25;;
52786;SDS011;38661;53.152;5.846;2023-12-14T06:07:42;20.10;;;9.88;;
52786;SDS011;38661;53.152;5.846;2023-12-14T06:10:09;15.48;;;8.77;;
52786;SDS011;38661;53.152;5.846;2023-12-14T06:12:35;14.85;;;9.15;;
52786;SDS011;38661;53.152;5.846;2023-12-14T06:15:01;14.45;;;9.27;;
52786;SDS011;38661;53.152;5.846;2023-12-14T06:17:27;14.70;;;9.15;;
52786;SDS011;38661;53.152;5.846;2023-12-14T06:19:52;15.98;;;10.55;;
52786;SDS011;38661;53.152;5.846;2023-12-14T06:22:18;18.02;;;9.90;;
52786;SDS011;38661;53.152;5.846;2023-12-14T06:24:44;20.75;;;10.13;;
52786;SDS011;38661;53.152;5.846;2023-12-14T06:27:10;15.18;;;8.38;;
52786;SDS011;38661;53.152;5.846;2023-12-14T06:29:36;13.20;;;9.02;;
52786;SDS011;38661;53.152;5.846;2023-12-14T06:32:01;15.93;;;8.77;;
52786;SDS011;38661;53.152;5.846;2023-12-14T06:34:27;17.92;;;8.43;;
52786;SDS011;38661;53.152;5.846;2023-12-14T06:36:53;19.15;;;9.40;;
52786;SDS011;38661;53.152;5.846;2023-12-14T06:39:19;18.50;;;9.55;;
52786;SDS011;38661;53.152;5.846;2023-12-14T06:41:44;15.70;;;9.38;;
52786;SDS011;38661;53.152;5.846;2023-12-14T06:44:10;15.95;;;9.65;;
52786;SDS011;38661;53.152;5.846;2023-12-14T06:46:36;15.70;;;9.05;;
52786;SDS011;38661;53.152;5.846;2023-12-14T06:49:01;18.50;;;9.15;;
52786;SDS011;38661;53.152;5.846;2023-12-14T06:51:27;16.15;;;8.98;;
52786;SDS011;38661;53.152;5.846;2023-12-14T06:53:53;17.08;;;9.43;;
52786;SDS011;38661;53.152;5.846;2023-12-14T06:56:18;20.88;;;10.70;;
52786;SDS011;38661;53.152;5.846;2023-12-14T06:58:44;18.88;;;9.13;;
52786;SDS011;38661;53.152;5.846;2023-12-14T07:01:14;16.25;;;8.70;;
52786;SDS011;38661;53.152;5.846;2023-12-14T07:03:41;18.13;;;9.38;;
52786;SDS011;38661;53.152;5.846;2023-12-14T07:06:11;20.85;;;9.65;;
52786;SDS011;38661;53.152;5.846;2023-12-14T07:08:40;20.23;;;9.60;;
52786;SDS011;38661;53.152;5.846;2023-12-14T07:11:10;16.50;;;9.00;;
52786;SDS011;38661;53.152;5.846;2023-12-14T07:13:36;19.50;;;10.05;;
52786;SDS011;38661;53.152;5.846;2023-12-14T07:16:06;20.45;;;9.15;;
52786;SDS011;38661;53.152;5.846;2023-12-14T07:18:34;15.50;;;8.63;;
52786;SDS011;38661;53.152;5.846;2023-12-14T07:21:00;16.27;;;10.10;;
52786;SDS011;38661;53.152;5.846;2023-12-14T07:23:27;16.63;;;9.43;;
52786;SDS011;38661;53.152;5.846;2023-12-14T07:25:53;16.73;;;10.05;;
52786;SDS011;38661;53.152;5.846;2023-12-14T07:28:18;15.27;;;8.70;;
52786;SDS011;38661;53.152;5.846;2023-12-14T07:30:45;18.08;;;9.23;;
52786;SDS011;38661;53.152;5.846;2023-12-14T07:33:11;14.88;;;9.00;;
52786;SDS011;38661;53.152;5.846;2023-12-14T07:35:37;14.75;;;9.55;;
52786;SDS011;38661;53.152;5.846;2023-12-14T07:38:03;18.33;;;9.68;;
52786;SDS011;38661;53.152;5.846;2023-12-14T07:40:29;18.48;;;11.30;;
52786;SDS011;38661;53.152;5.846;2023-12-14T07:42:54;17.25;;;11.15;;
52786;SDS011;38661;53.152;5.846;2023-12-14T07:45:20;20.38;;;11.75;;
52786;SDS011;38661;53.152;5.846;2023-12-14T07:47:46;18.02;;;10.95;;
52786;SDS011;38661;53.152;5.846;2023-12-14T07:50:12;16.25;;;10.60;;
52786;SDS011;38661;53.152;5.846;2023-12-14T07:52:37;17.70;;;10.65;;
52786;SDS011;38661;53.152;5.846;2023-12-14T07:55:04;17.60;;;10.88;;
52786;SDS011;38661;53.152;5.846;2023-12-14T07:57:30;17.15;;;9.65;;
52786;SDS011;38661;53.152;5.846;2023-12-14T07:59:56;17.90;;;9.75;;
52786;SDS011;38661;53.152;5.846;2023-12-14T08:02:22;17.25;;;10.07;;
52786;SDS011;38661;53.152;5.846;2023-12-14T08:04:48;17.65;;;9.07;;
52786;SDS011;38661;53.152;5.846;2023-12-14T08:07:14;18.70;;;10.02;;
52786;SDS011;38661;53.152;5.846;2023-12-14T08:09:39;17.30;;;9.73;;
52786;SDS011;38661;53.152;5.846;2023-12-14T08:12:05;15.38;;;8.95;;
52786;SDS011;38661;53.152;5.846;2023-12-14T08:14:34;14.55;;;9.35;;
52786;SDS011;38661;53.152;5.846;2023-12-14T08:17:02;15.93;;;9.27;;
52786;SDS011;38661;53.152;5.846;2023-12-14T08:19:28;16.95;;;9.85;;
52786;SDS011;38661;53.152;5.846;2023-12-14T08:21:54;16.85;;;9.63;;
52786;SDS011;38661;53.152;5.846;2023-12-14T08:24:20;17.52;;;8.88;;
52786;SDS011;38661;53.152;5.846;2023-12-14T08:26:45;13.50;;;8.38;;
52786;SDS011;38661;53.152;5.846;2023-12-14T08:29:11;18.80;;;10.38;;
52786;SDS011;38661;53.152;5.846;2023-12-14T08:31:37;15.43;;;10.38;;
52786;SDS011;38661;53.152;5.846;2023-12-14T08:34:02;14.57;;;9.15;;
52786;SDS011;38661;53.152;5.846;2023-12-14T08:36:29;14.90;;;9.38;;
52786;SDS011;38661;53.152;5.846;2023-12-14T08:38:55;19.63;;;9.60;;
52786;SDS011;38661;53.152;5.846;2023-12-14T08:41:20;15.27;;;8.50;;
52786;SDS011;38661;53.152;5.846;2023-12-14T08:43:46;17.63;;;9.40;;
52786;SDS011;38661;53.152;5.846;2023-12-14T08:46:12;16.08;;;9.30;;
52786;SDS011;38661;53.152;5.846;2023-12-14T08:48:38;16.83;;;8.88;;
52786;SDS011;38661;53.152;5.846;2023-12-14T08:51:03;15.13;;;9.85;;
52786;SDS011;38661;53.152;5.846;2023-12-14T08:53:30;19.17;;;9.35;;
52786;SDS011;38661;53.152;5.846;2023-12-14T08:55:56;19.80;;;9.85;;
52786;SDS011;38661;53.152;5.846;2023-12-14T08:58:21;17.27;;;9.77;;
52786;SDS011;38661;53.152;5.846;2023-12-14T09:00:47;17.75;;;9.48;;
52786;SDS011;38661;53.152;5.846;2023-12-14T09:03:18;15.45;;;9.10;;
52786;SDS011;38661;53.152;5.846;2023-12-14T09:05:44;18.10;;;9.57;;
52786;SDS011;38661;53.152;5.846;2023-12-14T09:08:10;14.13;;;9.38;;
52786;SDS011;38661;53.152;5.846;2023-12-14T09:10:36;18.02;;;10.77;;
52786;SDS011;38661;53.152;5.846;2023-12-14T09:13:05;18.48;;;9.85;;
52786;SDS011;38661;53.152;5.846;2023-12-14T09:15:31;18.58;;;9.85;;
52786;SDS011;38661;53.152;5.846;2023-12-14T09:17:57;18.30;;;9.52;;
52786;SDS011;38661;53.152;5.846;2023-12-14T09:20:23;13.90;;;8.88;;
52786;SDS011;38661;53.152;5.846;2023-12-14T09:22:49;17.67;;;8.07;;
52786;SDS011;38661;53.152;5.846;2023-12-14T09:25:15;14.23;;;9.25;;
52786;SDS011;38661;53.152;5.846;2023-12-14T09:27:41;17.10;;;9.48;;
52786;SDS011;38661;53.152;5.846;2023-12-14T09:30:07;15.43;;;10.07;;
52786;SDS011;38661;53.152;5.846;2023-12-14T09:32:33;24.83;;;12.13;;
52786;SDS011;38661;53.152;5.846;2023-12-14T09:34:59;17.05;;;9.30;;
52786;SDS011;38661;53.152;5.846;2023-12-14T09:37:25;15.23;;;9.77;;
52786;SDS011;38661;53.152;5.846;2023-12-14T09:39:51;15.13;;;10.35;;
52786;SDS011;38661;53.152;5.846;2023-12-14T09:42:18;21.13;;;13.27;;
52786;SDS011;38661;53.152;5.846;2023-12-14T09:44:47;29.58;;;18.92;;
52786;SDS011;38661;53.152;5.846;2023-12-14T09:47:13;31.42;;;17.00;;
52786;SDS011;38661;53.152;5.846;2023-12-14T09:49:39;20.50;;;12.00;;
52786;SDS011;38661;53.152;5.846;2023-12-14T09:52:08;18.65;;;10.88;;
52786;SDS011;38661;53.152;5.846;2023-12-14T09:54:34;21.67;;;11.35;;
52786;SDS011;38661;53.152;5.846;2023-12-14T09:57:00;20.55;;;11.15;;
52786;SDS011;38661;53.152;5.846;2023-12-14T09:59:26;19.70;;;10.68;;
52786;SDS011;38661;53.152;5.846;2023-12-14T10:01:51;18.30;;;9.77;;
52786;SDS011;38661;53.152;5.846;2023-12-14T10:04:18;16.77;;;10.02;;
52786;SDS011;38661;53.152;5.846;2023-12-14T10:06:45;17.35;;;10.35;;
52786;SDS011;38661;53.152;5.846;2023-12-14T10:09:12;26.02;;;15.48;;
52786;SDS011;38661;53.152;5.846;2023-12-14T10:11:40;26.33;;;18.25;;
52786;SDS011;38661;53.152;5.846;2023-12-14T10:14:23;22.38;;;15.35;;
52786;SDS011;38661;53.152;5.846;2023-12-14T10:16:50;19.00;;;11.32;;
52786;SDS011;38661;53.152;5.846;2023-12-14T10:19:17;16.98;;;10.13;;
52786;SDS011;38661;53.152;5.846;2023-12-14T10:21:45;16.98;;;10.00;;
52786;SDS011;38661;53.152;5.846;2023-12-14T10:24:12;14.93;;;8.65;;
52786;SDS011;38661;53.152;5.846;2023-12-14T10:26:38;14.05;;;9.77;;
52786;SDS011;38661;53.152;5.846;2023-12-14T10:29:04;11.10;;;8.30;;
52786;SDS011;38661;53.152;5.846;2023-12-14T10:31:33;12.23;;;7.80;;
52786;SDS011;38661;53.152;5.846;2023-12-14T10:34:03;16.02;;;9.23;;
52786;SDS011;38661;53.152;5.846;2023-12-14T10:36:29;14.82;;;9.27;;
52786;SDS011;38661;53.152;5.846;2023-12-14T10:38:56;12.85;;;8.30;;
52786;SDS011;38661;53.152;5.846;2023-12-14T10:41:23;14.65;;;7.75;;
52786;SDS011;38661;53.152;5.846;2023-12-14T10:43:53;14.65;;;7.32;;
52786;SDS011;38661;53.152;5.846;2023-12-14T10:46:20;14.68;;;9.30;;
52786;SDS011;38661;53.152;5.846;2023-12-14T10:48:50;10.43;;;7.57;;
52786;SDS011;38661;53.152;5.846;2023-12-14T10:51:20;13.23;;;7.63;;
52786;SDS011;38661;53.152;5.846;2023-12-14T10:53:48;13.43;;;8.02;;
52786;SDS011;38661;53.152;5.846;2023-12-14T10:56:16;10.68;;;7.80;;
52786;SDS011;38661;53.152;5.846;2023-12-14T10:58:47;17.90;;;9.00;;
52786;SDS011;38661;53.152;5.846;2023-12-14T11:01:16;16.20;;;8.93;;
52786;SDS011;38661;53.152;5.846;2023-12-14T11:03:44;14.15;;;9.32;;
52786;SDS011;38661;53.152;5.846;2023-12-14T11:09:04;13.63;;;8.43;;
52786;SDS011;38661;53.152;5.846;2023-12-14T11:14:25;15.98;;;9.85;;
52786;SDS011;38661;53.152;5.846;2023-12-14T11:17:02;12.98;;;10.00;;
52786;SDS011;38661;53.152;5.846;2023-12-14T11:19:31;13.27;;;7.97;;
52786;SDS011;38661;53.152;5.846;2023-12-14T11:22:10;15.93;;;9.68;;
52786;SDS011;38661;53.152;5.846;2023-12-14T11:24:40;15.18;;;8.38;;
52786;SDS011;38661;53.152;5.846;2023-12-14T11:27:07;21.10;;;10.25;;
52786;SDS011;38661;53.152;5.846;2023-12-14T11:29:35;16.70;;;8.82;;
52786;SDS011;38661;53.152;5.846;2023-12-14T11:32:03;14.65;;;8.77;;
52786;SDS011;38661;53.152;5.846;2023-12-14T11:34:30;13.35;;;8.63;;
52786;SDS011;38661;53.152;5.846;2023-12-14T11:36:56;14.80;;;9.48;;
52786;SDS011;38661;53.152;5.846;2023-12-14T11:39:22;13.88;;;9.43;;
52786;SDS011;38661;53.152;5.846;2023-12-14T11:42:00;13.85;;;9.50;;
52786;SDS011;38661;53.152;5.846;2023-12-14T11:44:28;18.02;;;10.13;;
52786;SDS011;38661;53.152;5.846;2023-12-14T11:46:54;13.15;;;9.65;;
52786;SDS011;38661;53.152;5.846;2023-12-14T11:49:20;17.50;;;10.25;;
52786;SDS011;38661;53.152;5.846;2023-12-14T11:51:46;18.00;;;10.20;;
52786;SDS011;38661;53.152;5.846;2023-12-14T11:54:12;13.90;;;9.43;;
52786;SDS011;38661;53.152;5.846;2023-12-14T11:56:38;13.55;;;9.60;;
52786;SDS011;38661;53.152;5.846;2023-12-14T11:59:10;17.98;;;10.10;;
52786;SDS011;38661;53.152;5.846;2023-12-14T12:01:36;17.80;;;10.07;;
52786;SDS011;38661;53.152;5.846;2023-12-14T12:04:08;15.57;;;9.93;;
52786;SDS011;38661;53.152;5.846;2023-12-14T12:06:35;16.60;;;10.95;;
52786;SDS011;38661;53.152;5.846;2023-12-14T12:09:01;12.48;;;9.35;;
52786;SDS011;38661;53.152;5.846;2023-12-14T12:11:30;20.52;;;10.20;;
52786;SDS011;38661;53.152;5.846;2023-12-14T12:13:56;19.63;;;10.05;;
52786;SDS011;38661;53.152;5.846;2023-12-14T12:16:23;17.00;;;10.43;;
52786;SDS011;38661;53.152;5.846;2023-12-14T12:18:49;18.55;;;10.00;;
52786;SDS011;38661;53.152;5.846;2023-12-14T12:21:15;18.58;;;9.60;;
52786;SDS011;38661;53.152;5.846;2023-12-14T12:23:41;15.88;;;10.77;;
52786;SDS011;38661;53.152;5.846;2023-12-14T12:26:07;15.98;;;9.80;;
52786;SDS011;38661;53.152;5.846;2023-12-14T12:28:33;22.23;;;10.35;;
52786;SDS011;38661;53.152;5.846;2023-12-14T12:30:59;14.77;;;9.50;;
52786;SDS011;38661;53.152;5.846;2023-12-14T12:33:25;12.82;;;8.82;;
52786;SDS011;38661;53.152;5.846;2023-12-14T12:35:51;28.92;;;16.55;;
52786;SDS011;38661;53.152;5.846;2023-12-14T12:38:17;16.55;;;9.05;;
52786;SDS011;38661;53.152;5.846;2023-12-14T12:40:46;14.80;;;9.07;;
52786;SDS011;38661;53.152;5.846;2023-12-14T12:43:12;14.52;;;8.20;;
52786;SDS011;38661;53.152;5.846;2023-12-14T12:45:39;15.48;;;10.45;;
52786;SDS011;38661;53.152;5.846;2023-12-14T12:48:05;13.43;;;8.93;;
52786;SDS011;38661;53.152;5.846;2023-12-14T12:50:32;11.40;;;8.40;;
52786;SDS011;38661;53.152;5.846;2023-12-14T12:52:58;14.27;;;7.97;;
52786;SDS011;38661;53.152;5.846;2023-12-14T12:55:24;14.18;;;8.43;;
52786;SDS011;38661;53.152;5.846;2023-12-14T12:57:49;14.93;;;8.25;;
52786;SDS011;38661;53.152;5.846;2023-12-14T13:00:15;15.68;;;9.70;;
52786;SDS011;38661;53.152;5.846;2023-12-14T13:02:42;16.17;;;9.27;;
52786;SDS011;38661;53.152;5.846;2023-12-14T13:05:09;14.75;;;8.80;;
52786;SDS011;38661;53.152;5.846;2023-12-14T13:07:38;15.38;;;9.38;;
52786;SDS011;38661;53.152;5.846;2023-12-14T13:10:04;12.50;;;9.02;;
52786;SDS011;38661;53.152;5.846;2023-12-14T13:12:31;15.07;;;9.50;;
52786;SDS011;38661;53.152;5.846;2023-12-14T13:14:57;12.75;;;8.20;;
52786;SDS011;38661;53.152;5.846;2023-12-14T13:17:24;11.77;;;7.68;;
52786;SDS011;38661;53.152;5.846;2023-12-14T13:19:49;14.02;;;7.60;;
52786;SDS011;38661;53.152;5.846;2023-12-14T13:22:16;11.95;;;7.53;;
52786;SDS011;38661;53.152;5.846;2023-12-14T13:24:41;12.35;;;7.53;;
52786;SDS011;38661;53.152;5.846;2023-12-14T13:27:07;19.80;;;8.82;;
52786;SDS011;38661;53.152;5.846;2023-12-14T13:29:33;10.10;;;7.65;;
52786;SDS011;38661;53.152;5.846;2023-12-14T13:32:00;11.73;;;7.50;;
52786;SDS011;38661;53.152;5.846;2023-12-14T13:34:26;11.82;;;7.82;;
52786;SDS011;38661;53.152;5.846;2023-12-14T13:36:55;19.17;;;8.80;;
52786;SDS011;38661;53.152;5.846;2023-12-14T13:39:21;14.07;;;7.82;;
52786;SDS011;38661;53.152;5.846;2023-12-14T13:41:48;11.55;;;8.05;;
52786;SDS011;38661;53.152;5.846;2023-12-14T13:44:14;11.93;;;7.88;;
52786;SDS011;38661;53.152;5.846;2023-12-14T13:46:39;12.73;;;7.93;;
52786;SDS011;38661;53.152;5.846;2023-12-14T13:49:05;13.52;;;9.13;;
52786;SDS011;38661;53.152;5.846;2023-12-14T13:51:31;12.98;;;8.05;;
52786;SDS011;38661;53.152;5.846;2023-12-14T13:53:57;11.80;;;8.43;;
52786;SDS011;38661;53.152;5.846;2023-12-14T13:56:23;17.20;;;9.50;;
52786;SDS011;38661;53.152;5.846;2023-12-14T13:58:48;14.27;;;9.52;;
52786;SDS011;38661;53.152;5.846;2023-12-14T14:01:14;12.80;;;9.18;;
52786;SDS011;38661;53.152;5.846;2023-12-14T14:03:44;15.32;;;9.25;;
52786;SDS011;38661;53.152;5.846;2023-12-14T14:06:12;13.93;;;9.65;;
52786;SDS011;38661;53.152;5.846;2023-12-14T14:08:38;11.88;;;8.07;;
52786;SDS011;38661;53.152;5.846;2023-12-14T14:11:04;14.75;;;10.05;;
52786;SDS011;38661;53.152;5.846;2023-12-14T14:13:30;15.43;;;10.88;;
52786;SDS011;38661;53.152;5.846;2023-12-14T14:15:57;16.25;;;11.77;;
52786;SDS011;38661;53.152;5.846;2023-12-14T14:18:22;14.98;;;11.20;;
52786;SDS011;38661;53.152;5.846;2023-12-14T14:20:48;14.57;;;9.23;;
52786;SDS011;38661;53.152;5.846;2023-12-14T14:23:14;14.70;;;9.05;;
52786;SDS011;38661;53.152;5.846;2023-12-14T14:25:39;13.38;;;10.05;;
52786;SDS011;38661;53.152;5.846;2023-12-14T14:28:05;16.95;;;10.38;;
52786;SDS011;38661;53.152;5.846;2023-12-14T14:30:31;12.57;;;9.55;;
52786;SDS011;38661;53.152;5.846;2023-12-14T14:32:57;18.50;;;9.68;;
52786;SDS011;38661;53.152;5.846;2023-12-14T14:35:22;13.65;;;9.23;;
52786;SDS011;38661;53.152;5.846;2023-12-14T14:37:51;14.25;;;9.80;;
52786;SDS011;38661;53.152;5.846;2023-12-14T14:40:17;19.25;;;10.75;;
52786;SDS011;38661;53.152;5.846;2023-12-14T14:42:43;13.57;;;9.88;;
52786;SDS011;38661;53.152;5.846;2023-12-14T14:45:10;15.13;;;9.57;;
52786;SDS011;38661;53.152;5.846;2023-12-14T14:47:36;13.88;;;9.32;;
52786;SDS011;38661;53.152;5.846;2023-12-14T14:50:03;13.38;;;9.00;;
52786;SDS011;38661;53.152;5.846;2023-12-14T14:52:33;15.25;;;9.68;;
52786;SDS011;38661;53.152;5.846;2023-12-14T14:54:59;16.35;;;9.30;;